Time;durP1;ratioP1;P1;durP2;ratioP2;P2;SDS_P1;SDS_P2;PMS_P1;PMS_P2;Temp;Humidity;BMP_temperature;BMP_pressure;BME280_temperature;BME280_humidity;BME280_pressure;Samples;Min_cycle;Max_cycle;Signal;HPM_P1;HPM_P2
2021/12/19 00:01:23;;;;;;;24.40;8.52;;;;;;;;;;5025037;28;20635;-74
2021/12/19 00:04:18;;;;;;;29.63;9.27;;;;;;;;;;5024146;28;20036;-74
2021/12/19 00:09:29;;;;;;;28.60;9.07;;;;;;;;;;5026592;28;20133;-74
2021/12/19 00:11:57;;;;;;;32.30;10.25;;;;;;;;;;5023388;28;20038;-74
2021/12/19 00:14:23;;;;;;;41.08;12.13;;;;;;;;;;5020531;28;20041;-74
2021/12/19 00:16:53;;;;;;;32.78;10.25;;;;;;;;;;5017971;28;20034;-74
2021/12/19 00:19:19;;;;;;;28.15;9.60;;;;;;;;;;5027169;28;20555;-74
2021/12/19 00:21:44;;;;;;;24.02;9.07;;;;;;;;;;5027491;28;20029;-74
2021/12/19 00:24:10;;;;;;;31.00;11.15;;;;;;;;;;5025530;28;20046;-74
2021/12/19 00:26:36;;;;;;;29.90;10.50;;;;;;;;;;5025007;28;20041;-74
2021/12/19 00:29:03;;;;;;;30.15;10.18;;;;;;;;;;5027873;28;20095;-74
2021/12/19 00:31:29;;;;;;;37.90;11.05;;;;;;;;;;5014204;28;20458;-74
2021/12/19 00:33:55;;;;;;;34.97;10.75;;;;;;;;;;5025599;28;20010;-74
2021/12/19 00:36:21;;;;;;;27.25;9.07;;;;;;;;;;5023197;28;20083;-74
2021/12/19 00:38:47;;;;;;;27.48;8.30;;;;;;;;;;5026738;28;20042;-74
2021/12/19 00:41:12;;;;;;;27.98;8.60;;;;;;;;;;5026790;28;20048;-74
2021/12/19 00:46:14;;;;;;;27.15;9.48;;;;;;;;;;5025333;28;20033;-74
2021/12/19 00:48:47;;;;;;;25.55;8.52;;;;;;;;;;5025770;28;20030;-74
2021/12/19 00:51:16;;;;;;;24.92;8.35;;;;;;;;;;5013975;28;20049;-74
2021/12/19 00:53:43;;;;;;;23.15;7.78;;;;;;;;;;4989487;28;20048;-74
2021/12/19 00:56:09;;;;;;;23.00;7.85;;;;;;;;;;4987912;28;20044;-74
2021/12/19 00:58:34;;;;;;;25.90;8.13;;;;;;;;;;5004909;28;20038;-74
2021/12/19 01:01:01;;;;;;;26.95;7.95;;;;;;;;;;5007357;28;20116;-74
2021/12/19 01:03:26;;;;;;;20.48;7.25;;;;;;;;;;5006812;28;20034;-74
2021/12/19 01:05:53;;;;;;;25.63;8.48;;;;;;;;;;5005250;28;20052;-74
2021/12/19 01:08:18;;;;;;;23.17;7.80;;;;;;;;;;4989170;28;20045;-74
2021/12/19 01:10:46;;;;;;;25.15;9.30;;;;;;;;;;5004400;28;20041;-74
2021/12/19 01:13:14;;;;;;;30.80;9.38;;;;;;;;;;5002596;28;20021;-74
2021/12/19 01:15:40;;;;;;;42.78;9.38;;;;;;;;;;5003985;28;20041;-74
2021/12/19 01:18:06;;;;;;;28.52;8.82;;;;;;;;;;4995602;28;20029;-74
2021/12/19 01:20:34;;;;;;;27.88;8.82;;;;;;;;;;4987723;28;20034;-74
2021/12/19 01:23:00;;;;;;;27.15;7.95;;;;;;;;;;5003680;28;20050;-74
2021/12/19 01:25:26;;;;;;;29.85;9.85;;;;;;;;;;5002673;28;20542;-74
2021/12/19 01:27:52;;;;;;;25.50;9.05;;;;;;;;;;4999812;28;20034;-74
2021/12/19 01:30:17;;;;;;;26.15;9.40;;;;;;;;;;4998440;28;20038;-74
2021/12/19 01:32:44;;;;;;;23.52;8.10;;;;;;;;;;5005989;28;20046;-74
2021/12/19 01:35:14;;;;;;;30.20;9.70;;;;;;;;;;5004889;28;20053;-74
2021/12/19 01:37:40;;;;;;;27.67;8.77;;;;;;;;;;5003871;28;20511;-74
2021/12/19 01:40:08;;;;;;;23.02;8.10;;;;;;;;;;5002580;28;20690;-74
2021/12/19 01:42:36;;;;;;;22.70;8.48;;;;;;;;;;5005492;28;20038;-74
2021/12/19 01:45:06;;;;;;;24.48;8.88;;;;;;;;;;4987234;28;20041;-74
2021/12/19 01:47:31;;;;;;;27.27;7.90;;;;;;;;;;5005341;28;20076;-74
2021/12/19 01:49:56;;;;;;;24.55;7.53;;;;;;;;;;5002102;28;20096;-74
2021/12/19 01:52:23;;;;;;;27.20;7.70;;;;;;;;;;5007464;28;20216;-75
2021/12/19 01:54:49;;;;;;;24.83;7.70;;;;;;;;;;4987610;28;20033;-75
2021/12/19 01:57:15;;;;;;;28.45;8.38;;;;;;;;;;5008566;28;20037;-74
2021/12/19 01:59:40;;;;;;;26.08;7.97;;;;;;;;;;5004827;28;20048;-74
2021/12/19 02:02:08;;;;;;;23.27;7.40;;;;;;;;;;5004263;28;20050;-74
2021/12/19 02:04:35;;;;;;;23.95;6.90;;;;;;;;;;5004284;28;20049;-74
2021/12/19 02:07:01;;;;;;;24.65;7.45;;;;;;;;;;5006926;28;20088;-74
2021/12/19 02:09:27;;;;;;;25.73;7.60;;;;;;;;;;5005839;28;20403;-74
2021/12/19 02:11:53;;;;;;;28.13;7.75;;;;;;;;;;4989049;28;20527;-74
2021/12/19 02:14:20;;;;;;;23.42;7.40;;;;;;;;;;4997747;28;20575;-74
2021/12/19 02:16:45;;;;;;;22.45;6.97;;;;;;;;;;5002284;28;20128;-74
2021/12/19 02:19:12;;;;;;;22.45;7.10;;;;;;;;;;5004184;28;20117;-74
2021/12/19 02:21:38;;;;;;;24.95;7.57;;;;;;;;;;5004860;28;20052;-74
2021/12/19 02:24:10;;;;;;;22.15;7.35;;;;;;;;;;5004542;28;20125;-74
2021/12/19 02:26:38;;;;;;;19.85;6.07;;;;;;;;;;4990843;28;20030;-74
2021/12/19 02:29:04;;;;;;;25.60;8.07;;;;;;;;;;5001293;28;20609;-74
2021/12/19 02:31:30;;;;;;;19.80;6.53;;;;;;;;;;4979520;28;20065;-74
2021/12/19 02:34:11;;;;;;;25.13;8.52;;;;;;;;;;5007055;28;20044;-74
2021/12/19 02:36:50;;;;;;;22.67;6.75;;;;;;;;;;4997093;28;20125;-74
2021/12/19 02:39:48;;;;;;;20.80;6.72;;;;;;;;;;5003923;28;20038;-74
2021/12/19 02:50:19;;;;;;;19.77;6.60;;;;;;;;;;5000473;28;20041;-75
2021/12/19 02:52:45;;;;;;;16.95;5.32;;;;;;;;;;5000721;28;20128;-74
2021/12/19 02:55:17;;;;;;;18.85;6.20;;;;;;;;;;5003324;28;20132;-74
2021/12/19 02:57:43;;;;;;;21.43;6.40;;;;;;;;;;5010068;28;20077;-74
2021/12/19 03:00:12;;;;;;;21.40;6.28;;;;;;;;;;5009357;28;20284;-74
2021/12/19 03:02:38;;;;;;;20.65;6.68;;;;;;;;;;5025730;28;20038;-74
2021/12/19 03:05:05;;;;;;;23.17;5.90;;;;;;;;;;5007039;28;20054;-74
2021/12/19 03:07:31;;;;;;;20.58;5.93;;;;;;;;;;5011314;28;20104;-74
2021/12/19 03:18:00;;;;;;;21.63;5.72;;;;;;;;;;5010860;28;20060;-74
2021/12/19 03:20:31;;;;;;;18.38;5.22;;;;;;;;;;5016072;28;20056;-74
2021/12/19 03:23:00;;;;;;;17.88;5.90;;;;;;;;;;5001658;28;20128;-74
2021/12/19 03:25:27;;;;;;;20.38;6.03;;;;;;;;;;5010823;28;20107;-74
2021/12/19 03:27:53;;;;;;;21.40;6.30;;;;;;;;;;5010483;28;20022;-74
2021/12/19 03:30:19;;;;;;;19.90;6.10;;;;;;;;;;5008045;28;20045;-74
2021/12/19 03:32:45;;;;;;;21.33;6.15;;;;;;;;;;5010942;28;20045;-74
2021/12/19 03:35:10;;;;;;;20.08;6.50;;;;;;;;;;4989917;28;20041;-74
2021/12/19 03:37:36;;;;;;;23.98;5.63;;;;;;;;;;4993255;28;20472;-74
2021/12/19 03:40:09;;;;;;;21.80;6.78;;;;;;;;;;5017512;28;20033;-74
2021/12/19 03:42:46;;;;;;;17.73;6.30;;;;;;;;;;5009567;28;20045;-74
2021/12/19 03:45:16;;;;;;;20.20;6.07;;;;;;;;;;5005149;28;20652;-74
2021/12/19 03:47:42;;;;;;;16.15;4.78;;;;;;;;;;4995472;28;20045;-75
2021/12/19 03:50:10;;;;;;;14.10;4.80;;;;;;;;;;5008282;28;20035;-74
2021/12/19 03:52:36;;;;;;;17.73;5.75;;;;;;;;;;5012172;28;20111;-74
2021/12/19 03:55:02;;;;;;;17.02;5.63;;;;;;;;;;5011435;28;20457;-74
2021/12/19 03:57:28;;;;;;;17.30;5.35;;;;;;;;;;5012487;28;20264;-74
2021/12/19 03:59:53;;;;;;;14.32;5.30;;;;;;;;;;5026972;28;20501;-74
2021/12/19 04:02:26;;;;;;;16.92;5.03;;;;;;;;;;5008522;28;20414;-74
2021/12/19 04:04:54;;;;;;;19.83;5.70;;;;;;;;;;5021476;28;20076;-74
2021/12/19 04:07:20;;;;;;;18.95;6.15;;;;;;;;;;5011629;28;20033;-74
2021/12/19 04:09:45;;;;;;;16.23;4.88;;;;;;;;;;5028691;28;20045;-74
2021/12/19 04:12:11;;;;;;;17.90;5.05;;;;;;;;;;5020327;28;20049;-75
2021/12/19 04:14:36;;;;;;;44.60;6.53;;;;;;;;;;5024718;28;20045;-74
2021/12/19 04:17:02;;;;;;;16.10;5.60;;;;;;;;;;5009415;28;20056;-74
2021/12/19 04:19:29;;;;;;;14.18;4.93;;;;;;;;;;5029835;28;20048;-74
2021/12/19 04:21:55;;;;;;;17.70;5.68;;;;;;;;;;5025879;28;20025;-74
2021/12/19 04:24:20;;;;;;;15.48;4.55;;;;;;;;;;5029587;28;20051;-74
2021/12/19 04:26:45;;;;;;;16.23;5.07;;;;;;;;;;5011012;28;20041;-74
2021/12/19 04:29:11;;;;;;;16.95;4.95;;;;;;;;;;5027429;28;20048;-74
2021/12/19 04:31:37;;;;;;;16.33;5.53;;;;;;;;;;5010424;28;20045;-74
2021/12/19 04:34:03;;;;;;;21.13;4.90;;;;;;;;;;5025864;28;20037;-74
2021/12/19 04:36:33;;;;;;;22.45;5.43;;;;;;;;;;5022507;28;20046;-74
2021/12/19 04:52:28;;;;;;;16.00;5.32;;;;;;;;;;5008783;28;20111;-74
2021/12/19 04:55:19;;;;;;;30.50;5.53;;;;;;;;;;5007080;28;20165;-74
2021/12/19 04:57:54;;;;;;;23.40;6.15;;;;;;;;;;5006106;28;20050;-74
2021/12/19 05:00:31;;;;;;;18.77;5.65;;;;;;;;;;5006261;28;20096;-74
2021/12/19 05:03:03;;;;;;;20.20;6.25;;;;;;;;;;5019506;28;20041;-74
2021/12/19 05:16:07;;;;;;;25.85;5.75;;;;;;;;;;5001835;28;20045;-74
2021/12/19 05:18:36;;;;;;;15.55;4.85;;;;;;;;;;5003543;28;20077;-74
2021/12/19 05:21:07;;;;;;;20.42;5.68;;;;;;;;;;5001392;28;20037;-74
2021/12/19 05:25:59;;;;;;;20.33;5.13;;;;;;;;;;5008535;28;20128;-74
2021/12/19 05:28:25;;;;;;;19.38;5.65;;;;;;;;;;4997595;28;20045;-75
2021/12/19 05:30:50;;;;;;;18.40;5.50;;;;;;;;;;5003367;28;20037;-74
2021/12/19 05:33:16;;;;;;;18.05;5.57;;;;;;;;;;5006815;28;20042;-74
2021/12/19 05:46:29;;;;;;;21.40;5.07;;;;;;;;;;5104096;27;20794;-73
2021/12/19 05:48:55;;;;;;;14.30;4.40;;;;;;;;;;5059767;28;21296;-73
2021/12/19 05:51:20;;;;;;;15.90;3.88;;;;;;;;;;5043634;28;20052;-73
2021/12/19 05:53:45;;;;;;;16.67;4.78;;;;;;;;;;5031828;28;20049;-74
2021/12/19 05:56:11;;;;;;;18.50;5.68;;;;;;;;;;5059751;28;20037;-73
2021/12/19 05:58:36;;;;;;;14.77;4.55;;;;;;;;;;5059964;28;20036;-73
2021/12/19 06:01:02;;;;;;;14.85;5.13;;;;;;;;;;5043931;28;20059;-73
2021/12/19 06:03:28;;;;;;;16.70;4.70;;;;;;;;;;5057964;28;20787;-73
2021/12/19 06:05:53;;;;;;;16.33;5.10;;;;;;;;;;5053826;28;20045;-73
2021/12/19 06:08:18;;;;;;;18.27;5.72;;;;;;;;;;5058953;28;20045;-73
2021/12/19 06:10:44;;;;;;;19.27;5.68;;;;;;;;;;5031847;28;20048;-73
2021/12/19 06:13:09;;;;;;;17.63;5.22;;;;;;;;;;5052591;28;20035;-73
2021/12/19 06:15:36;;;;;;;17.95;5.43;;;;;;;;;;5037165;28;20032;-73
2021/12/19 06:18:02;;;;;;;15.98;4.88;;;;;;;;;;5029909;28;20132;-73
2021/12/19 06:20:28;;;;;;;18.13;4.10;;;;;;;;;;5048990;28;20132;-73
2021/12/19 06:22:54;;;;;;;18.48;4.97;;;;;;;;;;5049908;28;20550;-73
2021/12/19 06:25:19;;;;;;;19.80;4.85;;;;;;;;;;5046625;28;20037;-74
2021/12/19 06:27:44;;;;;;;16.08;5.00;;;;;;;;;;5034256;28;20035;-73
2021/12/19 06:30:10;;;;;;;18.02;5.40;;;;;;;;;;5051100;28;20045;-73
2021/12/19 06:32:36;;;;;;;21.58;5.57;;;;;;;;;;5053515;28;20040;-73
2021/12/19 06:35:07;;;;;;;18.25;4.43;;;;;;;;;;5045875;28;20055;-73
2021/12/19 06:37:37;;;;;;;15.65;4.65;;;;;;;;;;5025832;28;20060;-73
2021/12/19 06:40:05;;;;;;;20.63;5.78;;;;;;;;;;5043244;28;20028;-73
2021/12/19 06:42:31;;;;;;;19.98;5.45;;;;;;;;;;5059446;28;20689;-73
2021/12/19 06:44:56;;;;;;;17.50;5.45;;;;;;;;;;5033924;28;20052;-73
2021/12/19 06:47:21;;;;;;;23.05;5.78;;;;;;;;;;5063707;28;20040;-73
2021/12/19 06:49:47;;;;;;;18.90;5.88;;;;;;;;;;5050149;28;20040;-73
2021/12/19 06:52:13;;;;;;;23.65;5.57;;;;;;;;;;5052975;28;20371;-73
2021/12/19 06:54:38;;;;;;;21.58;7.10;;;;;;;;;;5070853;28;20056;-73
2021/12/19 06:57:03;;;;;;;28.90;9.55;;;;;;;;;;5042777;28;20507;-73
2021/12/19 06:59:29;;;;;;;28.48;7.72;;;;;;;;;;5046004;28;20067;-73
2021/12/19 07:01:54;;;;;;;29.77;6.60;;;;;;;;;;5039490;28;20053;-73
2021/12/19 07:04:20;;;;;;;29.23;7.50;;;;;;;;;;5035915;28;20038;-73
2021/12/19 07:06:45;;;;;;;21.17;6.25;;;;;;;;;;5032333;28;20029;-73
2021/12/19 07:09:10;;;;;;;28.85;7.18;;;;;;;;;;5053009;28;20132;-73
2021/12/19 07:11:36;;;;;;;21.50;6.25;;;;;;;;;;5067517;28;20537;-73
2021/12/19 07:14:01;;;;;;;41.50;8.40;;;;;;;;;;5064450;28;20474;-73
2021/12/19 07:16:26;;;;;;;26.52;6.70;;;;;;;;;;5061539;28;20086;-73
2021/12/19 07:18:54;;;;;;;36.53;6.70;;;;;;;;;;5059471;28;20104;-73
2021/12/19 07:21:20;;;;;;;38.70;7.40;;;;;;;;;;5059798;28;20037;-73
2021/12/19 07:23:45;;;;;;;37.33;6.60;;;;;;;;;;5065192;28;20035;-73
2021/12/19 07:26:11;;;;;;;31.80;6.75;;;;;;;;;;5060892;28;20049;-73
2021/12/19 07:28:37;;;;;;;39.45;6.85;;;;;;;;;;5051411;28;20067;-73
2021/12/19 07:31:02;;;;;;;31.23;6.45;;;;;;;;;;5039886;28;20083;-73
2021/12/19 07:33:27;;;;;;;37.00;6.72;;;;;;;;;;5048767;28;20115;-73
2021/12/19 07:35:55;;;;;;;29.33;7.25;;;;;;;;;;5039279;28;20159;-73
2021/12/19 07:38:30;;;;;;;37.67;6.60;;;;;;;;;;5045289;28;20036;-73
2021/12/19 07:40:57;;;;;;;31.60;7.05;;;;;;;;;;5041145;28;20043;-73
2021/12/19 07:43:23;;;;;;;35.42;6.47;;;;;;;;;;5043234;28;20108;-73
2021/12/19 07:45:48;;;;;;;28.33;5.45;;;;;;;;;;5037997;28;20585;-73
2021/12/19 07:48:13;;;;;;;21.85;4.85;;;;;;;;;;5061168;28;20102;-73
2021/12/19 07:50:39;;;;;;;18.02;4.63;;;;;;;;;;5051723;28;20144;-73
2021/12/19 07:53:04;;;;;;;21.48;4.78;;;;;;;;;;5040321;28;20044;-73
2021/12/19 07:55:31;;;;;;;30.23;4.80;;;;;;;;;;5035070;28;20067;-73
2021/12/19 07:57:57;;;;;;;24.30;5.50;;;;;;;;;;5033485;28;21130;-73
2021/12/19 08:00:22;;;;;;;22.63;5.90;;;;;;;;;;5041833;28;21189;-73
2021/12/19 08:02:48;;;;;;;31.00;4.82;;;;;;;;;;5052962;28;20045;-73
2021/12/19 08:05:15;;;;;;;21.90;5.45;;;;;;;;;;5050519;28;20045;-73
2021/12/19 08:07:43;;;;;;;23.75;5.10;;;;;;;;;;5062046;28;20119;-73
2021/12/19 08:12:35;;;;;;;26.00;5.30;;;;;;;;;;5049781;28;20422;-73
2021/12/19 08:15:01;;;;;;;28.20;6.10;;;;;;;;;;5035553;28;20632;-73
2021/12/19 08:17:26;;;;;;;26.45;5.88;;;;;;;;;;5054557;28;20092;-73
2021/12/19 08:19:52;;;;;;;49.75;7.57;;;;;;;;;;5068125;28;20041;-73
2021/12/19 08:22:19;;;;;;;52.97;7.82;;;;;;;;;;5063823;28;20048;-73
2021/12/19 08:24:46;;;;;;;34.30;7.03;;;;;;;;;;5041032;28;20498;-73
2021/12/19 08:27:12;;;;;;;42.88;6.85;;;;;;;;;;5036905;28;20041;-73
2021/12/19 08:29:37;;;;;;;27.17;6.28;;;;;;;;;;5037494;28;20052;-74
2021/12/19 08:32:03;;;;;;;28.95;6.40;;;;;;;;;;5041891;28;20614;-73
2021/12/19 08:34:28;;;;;;;23.05;6.38;;;;;;;;;;5047346;28;20041;-73
2021/12/19 08:36:54;;;;;;;30.30;7.20;;;;;;;;;;5054353;28;20048;-73
2021/12/19 08:39:20;;;;;;;27.98;5.93;;;;;;;;;;5046342;28;20514;-72
2021/12/19 08:41:45;;;;;;;34.70;7.07;;;;;;;;;;5044626;28;20045;-79
2021/12/19 08:44:10;;;;;;;32.55;7.38;;;;;;;;;;5051115;28;20041;-73
2021/12/19 08:46:37;;;;;;;34.80;7.32;;;;;;;;;;5032232;28;20052;-73
2021/12/19 08:49:04;;;;;;;27.67;6.32;;;;;;;;;;5011562;28;20029;-73
2021/12/19 08:51:32;;;;;;;26.38;7.60;;;;;;;;;;5013865;28;20044;-73
2021/12/19 08:54:00;;;;;;;35.47;7.20;;;;;;;;;;5009251;28;20037;-73
2021/12/19 08:56:26;;;;;;;34.50;7.15;;;;;;;;;;4998668;28;20628;-72
2021/12/19 08:58:51;;;;;;;32.80;7.47;;;;;;;;;;5024930;28;20973;-73
2021/12/19 09:01:16;;;;;;;26.75;7.15;;;;;;;;;;5020465;28;20398;-73
2021/12/19 09:03:42;;;;;;;23.33;6.30;;;;;;;;;;5038251;28;20083;-73
2021/12/19 09:06:07;;;;;;;31.05;7.20;;;;;;;;;;4996506;28;20053;-73
2021/12/19 09:08:32;;;;;;;19.67;6.25;;;;;;;;;;5011733;28;20982;-73
2021/12/19 09:10:58;;;;;;;26.95;7.10;;;;;;;;;;4995836;28;20045;-72
2021/12/19 09:13:24;;;;;;;28.70;7.15;;;;;;;;;;5012436;28;20442;-73
2021/12/19 09:15:50;;;;;;;25.75;6.95;;;;;;;;;;4996813;28;20030;-73
2021/12/19 09:18:17;;;;;;;31.98;7.05;;;;;;;;;;4996660;28;20696;-73
2021/12/19 09:20:42;;;;;;;36.65;7.25;;;;;;;;;;5018402;28;20271;-73
2021/12/19 09:23:08;;;;;;;29.48;6.53;;;;;;;;;;5014673;28;20503;-73
2021/12/19 09:25:35;;;;;;;36.90;7.30;;;;;;;;;;5012200;28;20427;-72
2021/12/19 09:28:01;;;;;;;24.70;6.95;;;;;;;;;;5009133;28;20037;-72
2021/12/19 09:30:26;;;;;;;25.48;6.88;;;;;;;;;;5015013;28;20034;-73
2021/12/19 09:32:52;;;;;;;30.33;7.43;;;;;;;;;;5026239;28;20036;-73
2021/12/19 09:35:17;;;;;;;20.15;6.45;;;;;;;;;;5031463;28;20041;-73
2021/12/19 09:37:42;;;;;;;23.20;6.25;;;;;;;;;;5034467;28;20554;-73
2021/12/19 09:40:16;;;;;;;20.00;6.25;;;;;;;;;;5033086;28;20516;-73
2021/12/19 09:42:47;;;;;;;25.48;8.07;;;;;;;;;;5034025;28;20112;-73
2021/12/19 09:45:13;;;;;;;23.48;5.80;;;;;;;;;;5044134;28;20076;-73
2021/12/19 09:47:38;;;;;;;20.33;5.13;;;;;;;;;;5056558;28;20458;-73
2021/12/19 09:50:05;;;;;;;14.77;5.15;;;;;;;;;;5059175;28;20691;-73
2021/12/19 09:52:31;;;;;;;16.52;4.75;;;;;;;;;;5056478;28;20091;-73
2021/12/19 09:54:56;;;;;;;16.75;4.82;;;;;;;;;;5051074;28;20036;-73
2021/12/19 09:57:23;;;;;;;13.57;4.30;;;;;;;;;;5052479;28;20844;-73
2021/12/19 09:59:49;;;;;;;15.75;4.97;;;;;;;;;;5054975;28;20060;-73
2021/12/19 10:02:16;;;;;;;21.85;5.60;;;;;;;;;;5048523;28;20063;-73
2021/12/19 10:04:44;;;;;;;18.88;5.93;;;;;;;;;;5036423;28;20037;-73
2021/12/19 10:07:09;;;;;;;18.77;5.68;;;;;;;;;;5035256;28;20040;-73
2021/12/19 10:09:50;;;;;;;25.38;6.00;;;;;;;;;;5033705;28;20024;-73
2021/12/19 10:15:04;;;;;;;34.63;7.00;;;;;;;;;;5032254;28;20037;-73
2021/12/19 10:17:30;;;;;;;24.10;7.47;;;;;;;;;;5032012;28;20132;-73
2021/12/19 10:19:57;;;;;;;28.35;7.30;;;;;;;;;;5029467;28;20132;-73
2021/12/19 10:22:23;;;;;;;29.65;7.80;;;;;;;;;;5036646;28;20501;-73
2021/12/19 10:24:49;;;;;;;31.08;8.30;;;;;;;;;;5053127;28;20179;-73
2021/12/19 10:27:41;;;;;;;23.50;6.63;;;;;;;;;;5050700;28;20124;-73
2021/12/19 10:30:15;;;;;;;23.27;5.78;;;;;;;;;;5048097;28;20043;-73
2021/12/19 10:32:50;;;;;;;17.83;5.93;;;;;;;;;;5055143;28;20040;-73
2021/12/19 10:35:18;;;;;;;22.20;4.70;;;;;;;;;;5057517;28;20068;-73
2021/12/19 10:37:44;;;;;;;20.77;5.47;;;;;;;;;;5058410;28;20057;-73
2021/12/19 10:40:10;;;;;;;18.48;5.15;;;;;;;;;;5059049;28;20036;-73
2021/12/19 10:43:00;;;;;;;20.85;5.60;;;;;;;;;;5043078;28;20025;-73
2021/12/19 10:45:51;;;;;;;21.40;5.32;;;;;;;;;;5035349;28;20069;-74
2021/12/19 10:48:17;;;;;;;18.98;4.97;;;;;;;;;;5053674;28;20136;-73
2021/12/19 10:50:52;;;;;;;15.52;4.97;;;;;;;;;;5054647;28;20522;-74
2021/12/19 10:53:18;;;;;;;22.98;5.85;;;;;;;;;;5053669;28;20514;-73
2021/12/19 10:55:47;;;;;;;19.00;5.43;;;;;;;;;;5057867;28;20463;-74
2021/12/19 10:58:59;;;;;;;21.20;5.88;;;;;;;;;;5053356;28;20068;-74
2021/12/19 11:01:39;;;;;;;20.08;5.68;;;;;;;;;;4983027;28;20678;-73
2021/12/19 11:04:09;;;;;;;17.20;6.07;;;;;;;;;;5052189;28;20037;-73
2021/12/19 11:06:47;;;;;;;18.67;6.15;;;;;;;;;;5041027;28;20049;-74
2021/12/19 11:09:22;;;;;;;17.02;5.45;;;;;;;;;;5040916;28;20047;-74
2021/12/19 11:11:51;;;;;;;21.52;7.05;;;;;;;;;;5035518;28;20049;-73
2021/12/19 11:14:22;;;;;;;23.42;6.43;;;;;;;;;;5052582;28;20052;-73
2021/12/19 11:16:50;;;;;;;24.92;6.70;;;;;;;;;;5057156;28;20645;-73
2021/12/19 11:19:15;;;;;;;25.67;8.10;;;;;;;;;;5056246;28;20040;-73
2021/12/19 11:21:42;;;;;;;22.08;6.43;;;;;;;;;;5055810;28;20020;-73
2021/12/19 11:24:16;;;;;;;30.27;7.68;;;;;;;;;;5061342;28;20052;-73
2021/12/19 11:26:45;;;;;;;25.15;7.63;;;;;;;;;;5049512;28;20417;-73
2021/12/19 11:29:12;;;;;;;22.83;7.53;;;;;;;;;;5048079;28;20128;-73
2021/12/19 11:31:39;;;;;;;26.05;7.50;;;;;;;;;;5061018;28;20051;-73
2021/12/19 11:34:32;;;;;;;31.52;9.48;;;;;;;;;;5055674;28;20052;-73
2021/12/19 11:37:10;;;;;;;22.77;7.53;;;;;;;;;;5060468;28;20051;-73
2021/12/19 11:39:39;;;;;;;21.23;6.65;;;;;;;;;;5058788;28;20075;-74
2021/12/19 11:42:10;;;;;;;24.85;7.57;;;;;;;;;;5045217;28;20135;-73
2021/12/19 11:47:45;;;;;;;20.73;6.88;;;;;;;;;;5025154;28;20041;-73
2021/12/19 11:50:27;;;;;;;24.90;7.35;;;;;;;;;;5001816;28;20045;-73
2021/12/19 11:53:15;;;;;;;20.75;6.85;;;;;;;;;;5029500;28;20040;-73
2021/12/19 11:55:43;;;;;;;20.63;6.93;;;;;;;;;;5013982;28;20045;-73
2021/12/19 11:58:08;;;;;;;24.67;7.82;;;;;;;;;;5031724;28;20052;-74
2021/12/19 12:00:47;;;;;;;21.02;6.97;;;;;;;;;;5034114;28;20100;-74
2021/12/19 12:03:12;;;;;;;18.88;6.97;;;;;;;;;;5018952;28;20037;-74
2021/12/19 12:05:50;;;;;;;22.08;6.72;;;;;;;;;;5036721;28;20040;-74
2021/12/19 12:08:23;;;;;;;23.73;6.85;;;;;;;;;;5037901;28;20041;-73
2021/12/19 12:13:41;;;;;;;25.27;7.50;;;;;;;;;;5030268;28;19924;-73
2021/12/19 12:18:40;;;;;;;23.15;7.47;;;;;;;;;;5039398;28;20037;-73
2021/12/19 12:21:18;;;;;;;20.90;7.40;;;;;;;;;;5040127;28;20029;-73
2021/12/19 12:23:51;;;;;;;24.45;7.35;;;;;;;;;;5017155;28;20041;-73
2021/12/19 12:26:50;;;;;;;16.90;6.60;;;;;;;;;;5034150;28;20136;-73
2021/12/19 12:29:16;;;;;;;17.67;6.90;;;;;;;;;;5017597;28;20712;-73
2021/12/19 12:31:43;;;;;;;22.75;7.30;;;;;;;;;;5024458;28;20037;-73
2021/12/19 12:34:11;;;;;;;24.35;7.82;;;;;;;;;;5023600;28;20071;-74
2021/12/19 12:36:37;;;;;;;24.70;7.68;;;;;;;;;;5036904;28;20547;-73
2021/12/19 12:39:08;;;;;;;22.35;7.13;;;;;;;;;;5037502;28;20541;-74
2021/12/19 12:41:52;;;;;;;20.15;7.32;;;;;;;;;;5012951;28;20041;-72
2021/12/19 12:44:21;;;;;;;;;;;;;;;;;;5030846;28;20045;-73
2021/12/19 12:46:49;;;;;;;15.52;6.22;;;;;;;;;;5025512;28;20574;-73
2021/12/19 12:49:16;;;;;;;13.85;5.30;;;;;;;;;;5017537;28;20030;-73
2021/12/19 12:51:47;;;;;;;18.20;6.75;;;;;;;;;;5013820;28;20052;-72
2021/12/19 12:54:18;;;;;;;11.70;4.60;;;;;;;;;;5012264;28;20038;-73
2021/12/19 12:56:48;;;;;;;11.07;4.93;;;;;;;;;;4996025;28;20076;-73
2021/12/19 12:59:17;;;;;;;14.15;5.50;;;;;;;;;;5020416;28;20598;-73
2021/12/19 13:01:47;;;;;;;15.07;5.40;;;;;;;;;;5002396;28;20033;-72
2021/12/19 13:04:19;;;;;;;14.50;4.82;;;;;;;;;;5023228;28;20414;-72
2021/12/19 13:06:53;;;;;;;16.88;6.05;;;;;;;;;;5019035;28;20040;-72
2021/12/19 13:09:39;;;;;;;11.73;4.93;;;;;;;;;;5010769;28;20049;-72
2021/12/19 13:12:12;;;;;;;15.00;5.65;;;;;;;;;;5013804;28;20060;-72
2021/12/19 13:14:46;;;;;;;12.93;4.50;;;;;;;;;;4996527;28;20870;-72
2021/12/19 13:17:12;;;;;;;13.85;5.65;;;;;;;;;;5016647;28;20041;-72
2021/12/19 13:19:48;;;;;;;12.98;4.95;;;;;;;;;;5025717;28;20042;-72
2021/12/19 13:22:16;;;;;;;13.07;5.28;;;;;;;;;;5007007;28;20033;-72
2021/12/19 13:24:43;;;;;;;17.23;5.28;;;;;;;;;;5002191;28;20029;-73
2021/12/19 13:27:15;;;;;;;15.63;5.50;;;;;;;;;;4996479;28;20073;-73
2021/12/19 13:29:42;;;;;;;12.13;5.90;;;;;;;;;;5013830;28;20057;-73
2021/12/19 13:32:23;;;;;;;13.55;6.00;;;;;;;;;;5015033;28;20079;-73
2021/12/19 13:34:50;;;;;;;14.63;6.25;;;;;;;;;;5010473;28;20065;-72
2021/12/19 13:37:16;;;;;;;16.50;5.90;;;;;;;;;;5041561;28;20029;-72
2021/12/19 13:39:43;;;;;;;18.52;6.88;;;;;;;;;;5028367;28;20032;-72
2021/12/19 13:42:10;;;;;;;15.65;6.00;;;;;;;;;;5029901;28;20037;-72
2021/12/19 13:44:36;;;;;;;17.50;6.70;;;;;;;;;;5042092;28;20044;-72
2021/12/19 13:47:13;;;;;;;20.10;7.05;;;;;;;;;;5055503;28;20075;-72
2021/12/19 13:49:38;;;;;;;20.35;6.47;;;;;;;;;;5052820;28;20056;-72
2021/12/19 13:52:06;;;;;;;19.38;7.35;;;;;;;;;;5053133;28;20048;-73
2021/12/19 13:54:34;;;;;;;20.35;6.45;;;;;;;;;;5048029;28;20552;-72
2021/12/19 13:57:00;;;;;;;24.65;7.53;;;;;;;;;;5044879;28;20052;-73
2021/12/19 13:59:27;;;;;;;18.23;7.55;;;;;;;;;;5028617;28;20099;-72
2021/12/19 14:01:53;;;;;;;20.75;7.00;;;;;;;;;;5059314;28;20041;-72
2021/12/19 14:04:25;;;;;;;17.65;6.45;;;;;;;;;;5051157;28;20047;-72
2021/12/19 14:06:58;;;;;;;18.77;6.55;;;;;;;;;;5036089;28;20112;-72
2021/12/19 14:09:23;;;;;;;17.85;6.43;;;;;;;;;;5062098;28;20113;-72
2021/12/19 14:11:56;;;;;;;21.15;7.70;;;;;;;;;;5062817;28;20059;-72
2021/12/19 14:14:26;;;;;;;19.98;7.75;;;;;;;;;;5030410;28;20674;-72
2021/12/19 14:16:57;;;;;;;18.88;7.05;;;;;;;;;;5060034;28;20074;-72
2021/12/19 14:19:25;;;;;;;18.92;6.15;;;;;;;;;;5038456;28;20032;-73
2021/12/19 14:21:53;;;;;;;13.52;5.30;;;;;;;;;;5054837;28;20043;-72
2021/12/19 14:24:41;;;;;;;12.20;5.28;;;;;;;;;;5059631;28;20041;-72
2021/12/19 14:27:26;;;;;;;14.60;6.30;;;;;;;;;;5054886;28;20540;-72
2021/12/19 14:29:54;;;;;;;18.88;6.10;;;;;;;;;;5057557;28;20044;-72
2021/12/19 14:32:36;;;;;;;14.13;5.50;;;;;;;;;;5059488;28;20097;-72
2021/12/19 14:35:07;;;;;;;13.15;5.25;;;;;;;;;;5058779;28;20564;-72
2021/12/19 14:37:34;;;;;;;11.55;4.85;;;;;;;;;;5064559;28;20116;-72
2021/12/19 14:40:22;;;;;;;18.58;5.90;;;;;;;;;;5061556;28;20174;-72
2021/12/19 14:42:56;;;;;;;14.02;6.03;;;;;;;;;;5054516;28;20071;-72
2021/12/19 14:45:42;;;;;;;16.83;5.90;;;;;;;;;;5039179;28;20118;-72
2021/12/19 14:48:17;;;;;;;13.63;6.10;;;;;;;;;;5042666;28;20040;-72
2021/12/19 14:50:49;;;;;;;17.95;6.38;;;;;;;;;;5043119;28;20044;-72
2021/12/19 14:53:33;;;;;;;17.27;7.22;;;;;;;;;;5034483;28;20088;-72
2021/12/19 14:56:04;;;;;;;21.65;7.63;;;;;;;;;;5030111;28;20086;-73
2021/12/19 14:58:34;;;;;;;19.20;8.18;;;;;;;;;;5039406;28;20038;-72
2021/12/19 15:01:05;;;;;;;25.02;9.80;;;;;;;;;;5038750;28;20037;-73
2021/12/19 15:03:33;;;;;;;19.63;8.57;;;;;;;;;;5039136;28;20094;-73
2021/12/19 15:06:01;;;;;;;21.67;8.38;;;;;;;;;;5041530;28;20041;-72
2021/12/19 15:08:28;;;;;;;20.77;8.65;;;;;;;;;;5032570;28;20119;-72
2021/12/19 15:10:56;;;;;;;19.63;8.30;;;;;;;;;;5042641;28;20150;-72
2021/12/19 15:13:21;;;;;;;19.08;7.85;;;;;;;;;;5030385;28;20041;-72
2021/12/19 15:15:47;;;;;;;18.02;7.63;;;;;;;;;;5034016;28;20086;-73
2021/12/19 15:18:12;;;;;;;18.33;7.13;;;;;;;;;;5034705;28;20055;-73
2021/12/19 15:20:38;;;;;;;14.82;6.70;;;;;;;;;;5049491;28;20044;-73
2021/12/19 15:23:04;;;;;;;13.45;5.93;;;;;;;;;;5035477;28;20045;-73
2021/12/19 15:25:29;;;;;;;14.15;5.72;;;;;;;;;;5035382;28;20544;-72
2021/12/19 15:27:55;;;;;;;18.83;6.45;;;;;;;;;;5032093;28;20082;-72
2021/12/19 15:30:21;;;;;;;11.77;5.80;;;;;;;;;;5034790;28;21066;-72
2021/12/19 15:32:46;;;;;;;15.07;6.60;;;;;;;;;;5043242;28;20032;-72
2021/12/19 15:35:12;;;;;;;15.30;5.30;;;;;;;;;;5047127;28;20414;-72
2021/12/19 15:37:38;;;;;;;13.32;5.57;;;;;;;;;;5044632;28;20108;-73
2021/12/19 15:40:05;;;;;;;11.30;4.57;;;;;;;;;;5042341;28;20597;-72
2021/12/19 15:42:31;;;;;;;11.32;4.97;;;;;;;;;;5033923;28;20091;-72
2021/12/19 15:44:56;;;;;;;11.40;5.07;;;;;;;;;;5034485;28;20049;-73
2021/12/19 15:47:21;;;;;;;12.43;5.00;;;;;;;;;;5034485;28;20069;-72
2021/12/19 15:49:47;;;;;;;12.63;5.28;;;;;;;;;;5027677;28;20041;-72
2021/12/19 15:52:12;;;;;;;10.23;4.32;;;;;;;;;;5036605;28;20116;-72